createdAt,value
2023-03-05T00:02:23.080Z,9.43
2023-03-05T00:04:52.247Z,8.90
2023-03-05T00:07:21.230Z,8.60
2023-03-05T00:09:48.031Z,9.20
2023-03-05T00:12:17.232Z,9.00
2023-03-05T00:14:46.821Z,9.47
2023-03-05T00:17:15.857Z,9.40
2023-03-05T00:19:45.180Z,8.80
2023-03-05T00:22:14.478Z,9.30
2023-03-05T00:24:43.737Z,9.40
2023-03-05T00:27:10.536Z,9.27
2023-03-05T00:29:37.319Z,9.63
2023-03-05T00:32:04.186Z,9.73
2023-03-05T00:34:33.212Z,8.97
2023-03-05T00:37:00.006Z,8.80
2023-03-05T00:39:26.781Z,9.00
2023-03-05T00:41:53.770Z,8.37
2023-03-05T00:44:21.182Z,8.27
2023-03-05T00:46:48.317Z,8.10
2023-03-05T00:49:17.592Z,7.87
2023-03-05T00:51:46.876Z,7.73
2023-03-05T00:54:16.298Z,7.83
2023-03-05T00:56:43.282Z,7.47
2023-03-05T00:59:10.297Z,7.17
2023-03-05T01:01:42.179Z,7.87
2023-03-05T01:04:09.174Z,6.60
2023-03-05T01:06:42.778Z,7.53
2023-03-05T01:09:09.638Z,7.33
2023-03-05T01:11:36.461Z,7.47
2023-03-05T01:14:03.225Z,7.00
2023-03-05T01:16:30.152Z,7.37
2023-03-05T01:18:56.964Z,7.60
2023-03-05T01:21:23.824Z,7.10
2023-03-05T01:23:50.675Z,7.13
2023-03-05T01:26:17.499Z,6.97
2023-03-05T01:28:44.376Z,7.10
2023-03-05T01:31:11.626Z,7.00
2023-03-05T01:33:41.082Z,7.23
2023-03-05T01:36:12.594Z,7.53
2023-03-05T01:38:39.613Z,6.87
2023-03-05T01:41:08.540Z,7.67
2023-03-05T01:43:39.946Z,7.30
2023-03-05T01:46:38.068Z,8.17
2023-03-05T01:49:35.992Z,7.93
2023-03-05T01:52:04.233Z,6.97
2023-03-05T01:54:39.432Z,7.23
2023-03-05T01:57:39.938Z,7.67
2023-03-05T02:00:25.111Z,7.17
2023-03-05T02:02:54.429Z,7.80
2023-03-05T02:05:27.231Z,7.60
2023-03-05T02:07:58.332Z,8.10
2023-03-05T02:10:33.495Z,7.97
2023-03-05T02:13:02.207Z,8.40
2023-03-05T02:15:31.944Z,9.23
2023-03-05T02:18:01.453Z,9.27
2023-03-05T02:20:31.847Z,8.97
2023-03-05T02:22:58.697Z,8.43
2023-03-05T02:25:29.138Z,8.80
2023-03-05T02:27:57.549Z,8.37
2023-03-05T02:30:26.939Z,8.37
2023-03-05T02:32:55.841Z,8.73
2023-03-05T02:35:22.719Z,7.90
2023-03-05T02:37:49.510Z,7.80
2023-03-05T02:40:18.855Z,7.37
2023-03-05T02:42:46.713Z,8.27
2023-03-05T02:45:13.768Z,8.00
2023-03-05T02:47:40.655Z,7.17
2023-03-05T02:50:08.540Z,7.30
2023-03-05T02:52:35.325Z,7.93
2023-03-05T02:55:02.118Z,7.53
2023-03-05T02:57:28.933Z,7.43
2023-03-05T02:59:55.844Z,7.67
2023-03-05T03:02:25.175Z,6.80
2023-03-05T03:04:51.950Z,7.77
2023-03-05T03:07:18.790Z,7.40
2023-03-05T03:09:45.821Z,7.13
2023-03-05T03:12:15.102Z,7.70
2023-03-05T03:14:42.667Z,6.83
2023-03-05T03:17:12.087Z,7.33
2023-03-05T03:19:41.412Z,7.23
2023-03-05T03:22:11.020Z,7.07
2023-03-05T03:24:38.319Z,7.33
2023-03-05T03:27:09.819Z,7.23
2023-03-05T03:29:36.649Z,7.27
2023-03-05T03:32:04.703Z,7.07
2023-03-05T03:34:31.789Z,6.43
2023-03-05T03:37:01.524Z,7.43
2023-03-05T03:39:29.023Z,6.47
2023-03-05T03:41:58.465Z,7.07
2023-03-05T03:44:25.429Z,6.60
2023-03-05T03:46:54.862Z,7.23
2023-03-05T03:49:25.085Z,6.83
2023-03-05T03:51:52.525Z,6.37
2023-03-05T03:54:24.012Z,6.27
2023-03-05T03:56:51.035Z,6.83
2023-03-05T03:59:17.800Z,6.90
2023-03-05T04:01:47.916Z,6.73
2023-03-05T04:04:14.799Z,7.43
2023-03-05T04:06:44.096Z,6.57
2023-03-05T04:09:13.350Z,6.83
2023-03-05T04:11:40.147Z,6.57
2023-03-05T04:14:09.057Z,6.27
2023-03-05T04:16:37.972Z,6.77
2023-03-05T04:19:04.745Z,6.27
2023-03-05T04:21:33.803Z,6.73
2023-03-05T04:24:00.766Z,6.90
2023-03-05T04:26:27.557Z,6.93
2023-03-05T04:28:54.342Z,6.53
2023-03-05T04:31:23.920Z,6.87
2023-03-05T04:33:50.829Z,6.87
2023-03-05T04:36:17.619Z,6.63
2023-03-05T04:38:44.452Z,7.00
2023-03-05T04:41:11.249Z,7.00
2023-03-05T04:43:38.165Z,6.60
2023-03-05T04:46:05.085Z,7.07
2023-03-05T04:48:31.893Z,6.67
2023-03-05T04:50:58.678Z,7.07
2023-03-05T04:53:25.517Z,7.00
2023-03-05T04:55:53.768Z,8.30
2023-03-05T04:58:22.677Z,7.30
2023-03-05T05:00:51.915Z,7.33
2023-03-05T05:03:18.824Z,7.50
2023-03-05T05:05:53.519Z,7.77
2023-03-05T05:08:20.318Z,7.80
2023-03-05T05:10:51.887Z,7.00
2023-03-05T05:13:18.626Z,6.93
2023-03-05T05:15:45.537Z,7.57
2023-03-05T05:18:14.764Z,6.47
2023-03-05T05:20:41.543Z,6.30
2023-03-05T05:23:12.883Z,6.60
2023-03-05T05:25:39.774Z,6.83
2023-03-05T05:28:06.579Z,6.93
2023-03-05T05:30:35.988Z,6.27
2023-03-05T05:33:02.738Z,6.77
2023-03-05T05:35:29.698Z,6.10
2023-03-05T05:38:01.085Z,6.57
2023-03-05T05:40:30.322Z,6.20
2023-03-05T05:42:57.096Z,5.80
2023-03-05T05:45:23.861Z,6.30
2023-03-05T05:47:52.823Z,6.10
2023-03-05T05:50:20.543Z,5.83
2023-03-05T05:52:47.355Z,5.53
2023-03-05T05:55:14.270Z,5.70
2023-03-05T05:57:41.115Z,6.23
2023-03-05T06:00:11.558Z,5.77
2023-03-05T06:02:44.427Z,5.33
2023-03-05T06:05:12.579Z,5.37
2023-03-05T06:07:39.335Z,5.53
2023-03-05T06:10:06.888Z,5.60
2023-03-05T06:12:33.742Z,5.60
2023-03-05T06:15:00.554Z,5.43
2023-03-05T06:17:31.295Z,5.60
2023-03-05T06:20:01.159Z,5.70
2023-03-05T06:22:30.468Z,5.30
2023-03-05T06:24:57.251Z,5.50
2023-03-05T06:27:26.252Z,5.23
2023-03-05T06:29:56.725Z,5.30
2023-03-05T06:32:23.832Z,5.77
2023-03-05T06:34:50.650Z,5.63
2023-03-05T06:37:17.525Z,5.23
2023-03-05T06:39:44.420Z,5.40
2023-03-05T06:42:11.307Z,5.40
2023-03-05T06:44:39.852Z,5.30
2023-03-05T06:47:07.552Z,5.23
2023-03-05T06:49:34.691Z,4.90
2023-03-05T06:52:03.766Z,5.47
2023-03-05T06:54:30.561Z,4.90
2023-03-05T06:56:57.404Z,5.80
2023-03-05T06:59:24.244Z,5.50
2023-03-05T07:01:51.020Z,4.90
2023-03-05T07:04:20.294Z,5.00
2023-03-05T07:06:47.114Z,5.00
2023-03-05T07:09:15.239Z,4.93
2023-03-05T07:11:42.058Z,5.10
2023-03-05T07:14:08.846Z,5.23
2023-03-05T07:16:35.777Z,4.47
2023-03-05T07:19:04.007Z,4.70
2023-03-05T07:21:34.041Z,4.63
2023-03-05T07:24:07.855Z,4.30
2023-03-05T07:26:34.669Z,4.47
2023-03-05T07:29:02.704Z,4.30
2023-03-05T07:31:32.834Z,4.07
2023-03-05T07:34:00.629Z,4.30
2023-03-05T07:36:27.654Z,4.30
2023-03-05T07:38:56.850Z,4.37
2023-03-05T07:41:23.808Z,4.50
2023-03-05T07:43:52.351Z,4.70
2023-03-05T07:46:22.236Z,4.37
2023-03-05T07:48:49.073Z,4.37
2023-03-05T07:51:20.222Z,3.80
2023-03-05T07:53:48.201Z,4.03
2023-03-05T07:56:22.032Z,4.33
2023-03-05T07:58:48.827Z,4.33
2023-03-05T08:01:15.702Z,4.87
2023-03-05T08:03:42.965Z,4.73
2023-03-05T08:06:10.176Z,4.93
2023-03-05T08:08:37.242Z,5.07
2023-03-05T08:11:05.620Z,5.43
2023-03-05T08:13:34.764Z,5.50
2023-03-05T08:16:07.788Z,5.93
2023-03-05T08:18:34.756Z,5.57
2023-03-05T08:21:03.689Z,5.20
2023-03-05T08:23:34.552Z,5.77
2023-03-05T08:26:01.573Z,5.57
2023-03-05T08:28:28.619Z,5.73
2023-03-05T08:30:55.451Z,5.77
2023-03-05T08:33:22.220Z,5.30
2023-03-05T08:35:51.505Z,5.70
2023-03-05T08:38:20.927Z,5.93
2023-03-05T08:40:48.418Z,6.07
2023-03-05T08:43:15.285Z,6.13
2023-03-05T08:45:42.153Z,6.77
2023-03-05T08:48:08.916Z,5.83
2023-03-05T08:50:40.439Z,6.50
2023-03-05T08:53:07.358Z,6.87
2023-03-05T08:55:37.535Z,6.63
2023-03-05T08:58:04.514Z,6.70
2023-03-05T09:00:31.344Z,7.03
2023-03-05T09:02:58.212Z,6.20
2023-03-05T09:05:27.207Z,6.53
2023-03-05T09:07:54.126Z,6.90
2023-03-05T09:10:21.437Z,7.10
2023-03-05T09:12:49.270Z,7.37
2023-03-05T09:15:18.438Z,8.07
2023-03-05T09:17:47.413Z,7.03
2023-03-05T09:20:14.469Z,7.67
2023-03-05T09:22:41.309Z,7.47
2023-03-05T09:25:11.255Z,7.63
2023-03-05T09:27:38.311Z,7.30
2023-03-05T09:30:05.771Z,6.90
2023-03-05T09:32:32.762Z,7.63
2023-03-05T09:34:59.588Z,7.97
2023-03-05T09:37:26.393Z,7.53
2023-03-05T09:39:53.174Z,8.43
2023-03-05T09:42:41.486Z,8.30
2023-03-05T09:45:11.179Z,7.67
2023-03-05T09:47:50.208Z,7.70
2023-03-05T09:50:24.002Z,7.73
2023-03-05T09:52:55.618Z,8.30
2023-03-05T09:55:40.556Z,8.50
2023-03-05T09:58:14.745Z,8.87
2023-03-05T10:00:49.304Z,7.43
2023-03-05T10:03:19.051Z,8.63
2023-03-05T10:05:45.883Z,9.23
2023-03-05T10:08:13.551Z,9.03
2023-03-05T10:10:43.822Z,8.80
2023-03-05T10:13:30.532Z,8.87
2023-03-05T10:16:06.620Z,9.00
2023-03-05T10:19:04.447Z,9.10
2023-03-05T10:21:48.025Z,9.43
2023-03-05T10:24:26.774Z,9.00
2023-03-05T10:27:08.807Z,9.37
2023-03-05T10:30:00.457Z,9.33
2023-03-05T10:32:36.359Z,10.27
2023-03-05T10:35:12.470Z,9.30
2023-03-05T10:37:48.854Z,10.33
2023-03-05T10:40:27.866Z,10.13
2023-03-05T10:43:05.850Z,10.60
2023-03-05T10:45:40.278Z,9.83
2023-03-05T10:48:24.698Z,9.67
2023-03-05T10:50:53.950Z,8.90
2023-03-05T10:54:03.140Z,9.07
2023-03-05T10:56:31.867Z,8.37
2023-03-05T10:59:00.917Z,7.97
2023-03-05T11:01:31.808Z,7.50
2023-03-05T11:04:00.005Z,7.63
2023-03-05T11:06:47.061Z,6.97
2023-03-05T11:09:18.186Z,6.43
2023-03-05T11:12:08.760Z,6.33
2023-03-05T11:14:37.512Z,6.13
2023-03-05T11:17:30.164Z,6.53
2023-03-05T11:19:57.712Z,6.93
2023-03-05T11:22:25.214Z,6.47
2023-03-05T11:25:10.735Z,5.30
2023-03-05T11:27:42.306Z,5.40
2023-03-05T11:30:41.820Z,4.53
2023-03-05T11:33:10.365Z,5.20
2023-03-05T11:35:39.651Z,5.17
2023-03-05T11:38:12.597Z,5.10
2023-03-05T11:40:39.386Z,5.37
2023-03-05T11:43:06.260Z,6.03
2023-03-05T11:45:33.234Z,6.47
2023-03-05T11:48:21.489Z,7.27
2023-03-05T11:50:51.923Z,7.27
2023-03-05T11:53:29.575Z,8.53
2023-03-05T11:56:18.952Z,7.80
2023-03-05T11:58:57.435Z,8.03
2023-03-05T12:01:27.711Z,8.30
2023-03-05T12:03:55.639Z,7.97
2023-03-05T12:06:44.725Z,7.40
2023-03-05T12:09:40.908Z,6.07
2023-03-05T12:12:26.229Z,4.83
2023-03-05T12:15:04.598Z,4.00
2023-03-05T12:17:50.451Z,3.50
2023-03-05T12:20:39.211Z,3.67
2023-03-05T12:23:06.490Z,3.90
2023-03-05T12:25:37.286Z,4.70
2023-03-05T12:28:04.105Z,4.10
2023-03-05T12:30:36.949Z,4.63
2023-03-05T12:33:04.874Z,4.73
2023-03-05T12:35:37.076Z,4.73
2023-03-05T12:38:17.351Z,5.90
2023-03-05T12:40:52.576Z,5.77
2023-03-05T12:43:30.001Z,5.67
2023-03-05T12:46:24.034Z,6.80
2023-03-05T12:48:51.056Z,6.13
2023-03-05T12:51:34.738Z,6.47
2023-03-05T12:54:22.653Z,6.97
2023-03-05T12:56:49.648Z,6.40
2023-03-05T12:59:17.276Z,7.03
2023-03-05T13:01:50.324Z,6.60
2023-03-05T13:04:22.536Z,6.43
2023-03-05T13:06:59.141Z,7.70
2023-03-05T13:09:31.453Z,7.03
2023-03-05T13:11:58.289Z,6.93
2023-03-05T13:15:09.419Z,7.90
2023-03-05T13:17:40.733Z,6.60
2023-03-05T13:20:26.338Z,5.80
2023-03-05T13:23:15.326Z,6.23
2023-03-05T13:25:43.281Z,6.47
2023-03-05T13:28:15.169Z,5.60
2023-03-05T13:30:51.899Z,6.10
2023-03-05T13:33:23.042Z,5.50
2023-03-05T13:35:50.015Z,5.20
2023-03-05T13:38:34.922Z,4.50
2023-03-05T13:41:16.241Z,4.60
2023-03-05T13:43:47.770Z,4.83
2023-03-05T13:46:22.594Z,4.57
2023-03-05T13:48:49.404Z,5.13
2023-03-05T13:51:16.783Z,4.53
2023-03-05T13:53:43.803Z,4.77
2023-03-05T13:56:14.827Z,5.03
2023-03-05T13:58:55.437Z,4.83
2023-03-05T14:01:36.870Z,4.67
2023-03-05T14:04:08.036Z,4.97
2023-03-05T14:06:41.075Z,5.47
2023-03-05T14:09:27.485Z,5.97
2023-03-05T14:12:04.275Z,6.10
2023-03-05T14:14:34.678Z,6.67
2023-03-05T14:17:23.648Z,5.97
2023-03-05T14:19:50.708Z,6.73
2023-03-05T14:22:35.351Z,6.63
2023-03-05T14:25:04.917Z,6.17
2023-03-05T14:27:35.892Z,6.27
2023-03-05T14:30:06.177Z,6.77
2023-03-05T14:32:36.316Z,6.70
2023-03-05T14:35:05.125Z,7.07
2023-03-05T14:37:36.795Z,6.53
2023-03-05T14:40:15.853Z,6.40
2023-03-05T14:42:53.849Z,7.33
2023-03-05T14:45:22.428Z,7.73
2023-03-05T14:47:53.154Z,7.07
2023-03-05T14:50:27.691Z,6.70
2023-03-05T14:52:59.820Z,7.07
2023-03-05T14:55:30.267Z,7.30
2023-03-05T14:58:04.290Z,7.73
2023-03-05T15:00:31.450Z,8.20
2023-03-05T15:02:58.338Z,7.80
2023-03-05T15:05:25.274Z,6.87
2023-03-05T15:07:52.059Z,7.33
2023-03-05T15:10:20.315Z,7.57
2023-03-05T15:12:50.410Z,7.40
2023-03-05T15:15:17.723Z,7.67
2023-03-05T15:17:47.536Z,7.67
2023-03-05T15:20:28.441Z,7.90
2023-03-05T15:22:57.370Z,7.47
2023-03-05T15:25:25.613Z,7.60
2023-03-05T15:27:52.536Z,7.87
2023-03-05T15:30:27.693Z,7.60
2023-03-05T15:32:55.060Z,7.57
2023-03-05T15:35:24.416Z,7.33
2023-03-05T15:37:51.685Z,7.77
2023-03-05T15:40:19.063Z,6.70
2023-03-05T15:42:48.349Z,8.37
2023-03-05T15:45:15.262Z,7.30
2023-03-05T15:47:42.038Z,7.00
2023-03-05T15:50:11.768Z,6.63
2023-03-05T15:52:38.533Z,7.60
2023-03-05T15:55:05.804Z,8.50
2023-03-05T15:57:37.106Z,7.93
2023-03-05T16:00:07.780Z,7.90
2023-03-05T16:02:34.660Z,8.43
2023-03-05T16:05:04.163Z,7.70
2023-03-05T16:07:32.897Z,7.67
2023-03-05T16:09:59.800Z,7.53
2023-03-05T16:12:28.078Z,7.23
2023-03-05T16:14:55.322Z,8.63
2023-03-05T16:17:22.133Z,7.43
2023-03-05T16:19:51.764Z,7.73
2023-03-05T16:22:18.666Z,8.00
2023-03-05T16:24:45.464Z,8.23
2023-03-05T16:27:12.380Z,7.67
2023-03-05T16:29:39.267Z,9.13
2023-03-05T16:32:06.309Z,8.80
2023-03-05T16:34:34.563Z,10.27
2023-03-05T16:37:04.397Z,9.97
2023-03-05T16:39:31.247Z,9.80
2023-03-05T16:42:04.929Z,9.83
2023-03-05T16:44:31.759Z,9.07
2023-03-05T16:46:59.185Z,10.17
2023-03-05T16:49:25.987Z,10.00
2023-03-05T16:51:56.699Z,11.17
2023-03-05T16:54:24.733Z,10.47
2023-03-05T16:56:53.896Z,11.40
2023-03-05T16:59:20.673Z,10.87
2023-03-05T17:01:47.524Z,11.63
2023-03-05T17:04:14.314Z,11.97
2023-03-05T17:06:41.112Z,10.97
2023-03-05T17:09:07.882Z,10.93
2023-03-05T17:11:37.213Z,12.73
2023-03-05T17:14:04.275Z,10.93
2023-03-05T17:16:31.071Z,12.73
2023-03-05T17:18:57.852Z,11.67
2023-03-05T17:21:24.621Z,11.20
2023-03-05T17:23:51.427Z,11.80
2023-03-05T17:26:19.532Z,12.00
2023-03-05T17:28:48.945Z,12.23
2023-03-05T17:31:15.940Z,13.07
2023-03-05T17:33:45.236Z,12.90
2023-03-05T17:36:17.502Z,12.60
2023-03-05T17:38:50.359Z,14.97
2023-03-05T17:41:17.644Z,15.83
2023-03-05T17:43:46.917Z,15.77
2023-03-05T17:46:13.957Z,15.00
2023-03-05T17:48:43.247Z,16.63
2023-03-05T17:51:13.763Z,16.70
2023-03-05T17:53:48.423Z,17.27
2023-03-05T17:56:17.033Z,16.30
2023-03-05T17:58:46.379Z,17.90
2023-03-05T18:01:13.254Z,17.80
2023-03-05T18:03:40.046Z,18.13
2023-03-05T18:06:07.243Z,18.20
2023-03-05T18:08:34.039Z,20.10
2023-03-05T18:11:00.789Z,21.70
2023-03-05T18:13:31.205Z,21.47
2023-03-05T18:15:59.464Z,19.57
2023-03-05T18:18:28.471Z,20.73
2023-03-05T18:20:55.368Z,23.40
2023-03-05T18:23:22.168Z,22.93
2023-03-05T18:25:51.636Z,23.23
2023-03-05T18:28:18.435Z,22.97
2023-03-05T18:30:45.957Z,23.10
2023-03-05T18:33:21.751Z,22.17
2023-03-05T18:35:52.017Z,22.57
2023-03-05T18:38:20.510Z,21.90
2023-03-05T18:40:47.812Z,21.43
2023-03-05T18:43:14.692Z,21.67
2023-03-05T18:45:43.894Z,22.23
2023-03-05T18:48:10.758Z,21.20
2023-03-05T18:50:39.729Z,21.13
2023-03-05T18:53:06.484Z,21.23
2023-03-05T18:55:33.294Z,21.10
2023-03-05T18:58:03.422Z,21.73
2023-03-05T19:00:31.189Z,22.33
2023-03-05T19:02:58.289Z,22.47
2023-03-05T19:05:27.451Z,22.83
2023-03-05T19:07:56.779Z,23.73
2023-03-05T19:10:25.956Z,23.77
2023-03-05T19:12:59.881Z,23.90
2023-03-05T19:15:26.690Z,23.43
2023-03-05T19:17:54.865Z,23.03
2023-03-05T19:20:21.739Z,22.77
2023-03-05T19:22:51.282Z,23.27
2023-03-05T19:25:23.175Z,23.87
2023-03-05T19:27:52.572Z,24.77
2023-03-05T19:30:24.963Z,24.73
2023-03-05T19:32:51.723Z,25.30
2023-03-05T19:35:18.707Z,24.97
2023-03-05T19:37:50.566Z,24.87
2023-03-05T19:40:22.173Z,23.97
2023-03-05T19:42:51.417Z,24.67
2023-03-05T19:45:19.337Z,24.27
2023-03-05T19:47:46.111Z,25.60
2023-03-05T19:50:15.183Z,25.03
2023-03-05T19:52:44.449Z,25.50
2023-03-05T19:55:11.479Z,26.33
2023-03-05T19:57:38.217Z,26.20
2023-03-05T20:00:05.443Z,27.47
2023-03-05T20:02:32.841Z,26.07
2023-03-05T20:05:04.171Z,26.60
2023-03-05T20:07:33.381Z,26.30
2023-03-05T20:10:00.838Z,26.07
2023-03-05T20:12:30.644Z,27.53
2023-03-05T20:14:57.593Z,28.20
2023-03-05T20:17:26.510Z,28.07
2023-03-05T20:19:59.113Z,28.13
2023-03-05T20:22:25.925Z,27.00
2023-03-05T20:24:52.813Z,25.87
2023-03-05T20:27:19.614Z,25.27
2023-03-05T20:29:46.514Z,24.53
2023-03-05T20:32:15.171Z,23.97
2023-03-05T20:34:42.100Z,24.30
2023-03-05T20:37:08.967Z,21.93
2023-03-05T20:39:35.843Z,23.60
2023-03-05T20:42:07.380Z,21.20
2023-03-05T20:44:34.156Z,22.97
2023-03-05T20:47:12.665Z,22.70
2023-03-05T20:49:41.576Z,21.67
2023-03-05T20:52:10.528Z,21.10
2023-03-05T20:54:39.443Z,20.87
2023-03-05T20:57:06.227Z,22.67
2023-03-05T20:59:33.040Z,23.73
2023-03-05T21:02:00.155Z,24.20
2023-03-05T21:04:27.041Z,23.20
2023-03-05T21:06:56.232Z,24.37
2023-03-05T21:09:23.067Z,22.50
2023-03-05T21:11:52.316Z,23.60
2023-03-05T21:14:19.165Z,23.60
2023-03-05T21:16:48.330Z,23.70
2023-03-05T21:19:15.155Z,21.90
2023-03-05T21:21:45.836Z,23.17
2023-03-05T21:24:13.117Z,24.03
2023-03-05T21:26:39.877Z,22.97
2023-03-05T21:29:06.672Z,22.90
2023-03-05T21:31:34.264Z,23.23
2023-03-05T21:34:01.170Z,23.97
2023-03-05T21:36:30.488Z,23.93
2023-03-05T21:38:58.396Z,22.93
2023-03-05T21:41:26.422Z,24.47
2023-03-05T21:43:55.451Z,23.37
2023-03-05T21:46:22.319Z,24.07
2023-03-05T21:48:51.587Z,25.17
2023-03-05T21:51:18.516Z,23.60
2023-03-05T21:53:47.527Z,23.63
2023-03-05T21:56:18.199Z,26.10
2023-03-05T21:58:44.996Z,24.17
2023-03-05T22:01:12.299Z,25.10
2023-03-05T22:03:41.592Z,24.70
2023-03-05T22:06:12.148Z,22.47
2023-03-05T22:08:38.964Z,21.10
2023-03-05T22:11:13.450Z,20.73
2023-03-05T22:13:40.438Z,19.30
2023-03-05T22:16:07.413Z,19.67
2023-03-05T22:18:34.223Z,20.10
2023-03-05T22:21:01.229Z,19.57
2023-03-05T22:23:31.818Z,18.80
2023-03-05T22:26:03.769Z,19.23
2023-03-05T22:28:30.623Z,19.23
2023-03-05T22:30:57.535Z,19.73
2023-03-05T22:33:24.449Z,20.57
2023-03-05T22:35:51.364Z,20.07
2023-03-05T22:38:23.804Z,21.10
2023-03-05T22:40:53.224Z,20.27
2023-03-05T22:43:23.275Z,21.63
2023-03-05T22:45:50.096Z,20.57
2023-03-05T22:48:16.910Z,21.03
2023-03-05T22:50:44.309Z,20.90
2023-03-05T22:53:12.145Z,20.17
2023-03-05T22:55:41.809Z,21.77
2023-03-05T22:58:08.644Z,22.17
2023-03-05T23:00:38.501Z,21.07
2023-03-05T23:03:06.449Z,22.30
2023-03-05T23:05:34.179Z,21.37
2023-03-05T23:08:01.001Z,21.97
2023-03-05T23:10:28.781Z,22.10
2023-03-05T23:12:58.944Z,21.87
2023-03-05T23:15:27.921Z,21.23
2023-03-05T23:17:54.940Z,21.03
2023-03-05T23:20:23.416Z,21.00
2023-03-05T23:22:52.793Z,21.27
2023-03-05T23:25:22.055Z,23.07
2023-03-05T23:27:48.980Z,21.90
2023-03-05T23:30:22.852Z,21.53
2023-03-05T23:32:59.245Z,21.33
2023-03-05T23:35:29.115Z,21.10
2023-03-05T23:37:56.929Z,21.77
2023-03-05T23:40:29.398Z,21.40
2023-03-05T23:42:56.148Z,22.03
2023-03-05T23:45:23.064Z,20.90
2023-03-05T23:47:50.139Z,22.57
2023-03-05T23:50:22.402Z,23.27
2023-03-05T23:52:49.523Z,20.57
2023-03-05T23:55:20.295Z,22.73
2023-03-05T23:57:47.258Z,22.23
